createdAt,value
2019-01-09T00:00:37.142Z,20.10
2019-01-09T00:03:35.234Z,20.10
2019-01-09T00:06:32.386Z,20.10
2019-01-09T00:09:29.736Z,20.10
2019-01-09T00:12:27.513Z,20.10
2019-01-09T00:15:24.235Z,20.00
2019-01-09T00:18:23.327Z,20.00
2019-01-09T00:21:19.674Z,20.00
2019-01-09T00:24:17.828Z,20.00
2019-01-09T00:27:13.778Z,20.00
2019-01-09T00:30:10.618Z,20.00
2019-01-09T00:33:07.897Z,20.00
2019-01-09T00:36:03.805Z,20.00
2019-01-09T00:39:02.703Z,20.00
2019-01-09T00:42:00.105Z,20.00
2019-01-09T00:44:59.287Z,20.00
2019-01-09T00:47:57.026Z,19.90
2019-01-09T00:50:53.449Z,19.90
2019-01-09T00:53:52.962Z,19.90
2019-01-09T00:56:54.957Z,20.00
2019-01-09T00:59:51.507Z,19.90
2019-01-09T01:03:24.412Z,20.00
2019-01-09T01:07:08.631Z,19.90
2019-01-09T01:10:58.834Z,20.00
2019-01-09T01:14:40.207Z,20.00
2019-01-09T01:17:55.573Z,19.90
2019-01-09T01:21:10.360Z,19.90
2019-01-09T01:24:41.191Z,19.90
2019-01-09T01:27:58.236Z,19.90
2019-01-09T01:31:37.271Z,19.90
2019-01-09T01:35:16.024Z,19.90
2019-01-09T01:38:59.690Z,19.90
2019-01-09T01:42:18.892Z,19.90
2019-01-09T01:45:56.498Z,19.90
2019-01-09T01:49:40.360Z,19.90
2019-01-09T01:53:14.211Z,19.90
2019-01-09T01:56:39.657Z,19.90
2019-01-09T01:59:45.636Z,19.80
2019-01-09T02:03:13.711Z,19.90
2019-01-09T02:06:22.986Z,19.90
2019-01-09T02:09:56.607Z,19.90
2019-01-09T02:13:40.223Z,19.90
2019-01-09T02:17:05.521Z,19.90
2019-01-09T02:20:16.128Z,19.90
2019-01-09T02:23:56.644Z,19.90
2019-01-09T02:27:29.836Z,19.90
2019-01-09T02:31:14.549Z,19.90
2019-01-09T02:34:16.380Z,19.90
2019-01-09T02:37:12.311Z,19.90
2019-01-09T02:40:08.948Z,19.90
2019-01-09T02:43:06.631Z,19.90
2019-01-09T02:46:04.069Z,19.90
2019-01-09T02:49:01.120Z,19.90
2019-01-09T02:52:00.195Z,19.90
2019-01-09T02:54:55.575Z,19.90
2019-01-09T02:57:56.462Z,19.90
2019-01-09T03:00:48.491Z,19.90
2019-01-09T03:03:44.516Z,19.90
2019-01-09T03:06:41.960Z,19.90
2019-01-09T03:09:40.740Z,19.90
2019-01-09T03:12:38.672Z,19.90
2019-01-09T03:15:37.465Z,20.00
2019-01-09T03:18:36.052Z,20.00
2019-01-09T03:21:35.774Z,20.10
2019-01-09T03:24:31.380Z,20.10
2019-01-09T03:27:29.128Z,20.10
2019-01-09T03:30:27.926Z,20.10
2019-01-09T03:33:24.288Z,20.20
2019-01-09T03:36:21.207Z,20.20
2019-01-09T03:39:24.178Z,20.20
2019-01-09T03:42:24.191Z,20.20
2019-01-09T03:45:18.560Z,20.20
2019-01-09T03:48:15.961Z,20.20
2019-01-09T03:51:15.983Z,20.20
2019-01-09T03:54:11.700Z,20.20
2019-01-09T03:57:08.779Z,20.20
2019-01-09T04:00:05.810Z,20.20
2019-01-09T04:03:06.131Z,20.20
2019-01-09T04:06:03.492Z,20.20
2019-01-09T04:08:59.506Z,20.20
2019-01-09T04:11:58.721Z,20.30
2019-01-09T04:15:01.608Z,20.30
2019-01-09T04:17:57.125Z,20.30
2019-01-09T04:20:55.299Z,20.30
2019-01-09T04:23:51.432Z,20.30
2019-01-09T04:26:47.352Z,20.30
2019-01-09T04:29:43.076Z,20.30
2019-01-09T04:32:39.700Z,20.30
2019-01-09T04:35:35.459Z,20.30
2019-01-09T04:38:34.437Z,20.40
2019-01-09T04:41:34.004Z,20.40
2019-01-09T04:44:28.428Z,20.40
2019-01-09T04:47:24.035Z,20.50
2019-01-09T04:50:19.837Z,20.50
2019-01-09T04:53:27.054Z,20.50
2019-01-09T04:56:23.182Z,20.50
2019-01-09T04:59:21.570Z,20.50
2019-01-09T05:02:22.934Z,20.50
2019-01-09T05:05:22.455Z,20.40
2019-01-09T05:08:18.360Z,20.40
2019-01-09T05:11:57.407Z,20.40
2019-01-09T05:14:57.629Z,20.50
2019-01-09T05:17:53.684Z,20.50
2019-01-09T05:21:12.416Z,20.50
2019-01-09T05:28:49.870Z,20.50
2019-01-09T05:32:07.314Z,20.50
2019-01-09T05:35:07.421Z,20.50
2019-01-09T05:38:04.229Z,20.50
2019-01-09T05:41:04.554Z,20.50
2019-01-09T05:44:04.949Z,20.50
2019-01-09T05:47:01.949Z,20.50
2019-01-09T05:50:02.386Z,20.50
2019-01-09T05:53:02.445Z,20.50
2019-01-09T05:56:01.798Z,20.50
2019-01-09T05:59:01.289Z,20.50
2019-01-09T06:05:49.245Z,20.50
2019-01-09T06:08:59.199Z,20.50
2019-01-09T06:12:25.788Z,20.50
2019-01-09T06:19:59.610Z,20.50
2019-01-09T06:23:43.753Z,20.60
2019-01-09T06:31:00.585Z,20.80
2019-01-09T06:35:01.210Z,20.80
2019-01-09T06:42:33.487Z,20.90
2019-01-09T06:46:57.336Z,21.00
2019-01-09T06:49:30.045Z,21.00
2019-01-09T06:52:27.378Z,21.10
2019-01-09T06:55:24.099Z,21.10
2019-01-09T06:58:32.535Z,21.10
2019-01-09T07:01:37.373Z,21.20
2019-01-09T07:05:00.398Z,21.20
2019-01-09T07:08:02.265Z,21.10
2019-01-09T07:19:18.519Z,21.20
2019-01-09T07:22:41.195Z,21.20
2019-01-09T07:30:08.172Z,21.30
2019-01-09T07:33:11.352Z,21.30
2019-01-09T07:36:28.554Z,21.30
2019-01-09T07:39:45.718Z,21.40
2019-01-09T07:43:02.051Z,21.40
2019-01-09T07:46:04.913Z,21.40
2019-01-09T07:49:11.445Z,21.40
2019-01-09T07:52:26.760Z,21.50
2019-01-09T07:55:40.601Z,21.40
2019-01-09T07:58:37.676Z,21.40
2019-01-09T08:01:48.216Z,21.40
2019-01-09T08:05:23.039Z,21.40
2019-01-09T08:08:30.703Z,21.50
2019-01-09T08:11:41.240Z,21.50
2019-01-09T08:17:16.935Z,21.50
2019-01-09T08:19:27.537Z,21.50
2019-01-09T08:22:52.989Z,21.50
2019-01-09T08:26:03.312Z,21.50
2019-01-09T08:29:07.279Z,21.50
2019-01-09T08:32:41.190Z,21.50
2019-01-09T08:36:01.575Z,21.50
2019-01-09T08:39:03.954Z,21.50
2019-01-09T08:42:07.468Z,21.50
2019-01-09T08:48:22.883Z,21.50
2019-01-09T08:51:39.479Z,21.50
2019-01-09T08:55:01.401Z,21.50
2019-01-09T08:58:06.637Z,21.50
2019-01-09T09:01:11.068Z,21.50
2019-01-09T09:04:10.277Z,21.50
2019-01-09T09:07:07.412Z,21.50
2019-01-09T09:10:11.171Z,21.60
2019-01-09T09:13:07.614Z,21.60
2019-01-09T09:16:05.307Z,21.50
2019-01-09T09:19:01.939Z,21.60
2019-01-09T09:22:00.767Z,21.60
2019-01-09T09:25:15.946Z,21.60
2019-01-09T09:28:21.531Z,21.60
2019-01-09T09:31:24.284Z,21.60
2019-01-09T09:34:18.563Z,21.60
2019-01-09T09:37:27.283Z,21.60
2019-01-09T09:40:30.569Z,21.60
2019-01-09T09:43:27.425Z,21.60
2019-01-09T09:46:46.522Z,21.60
2019-01-09T09:49:46.272Z,21.60
2019-01-09T09:52:59.469Z,21.60
2019-01-09T09:56:41.549Z,21.60
2019-01-09T09:59:47.532Z,21.60
2019-01-09T10:02:48.546Z,21.60
2019-01-09T10:05:56.157Z,21.60
2019-01-09T10:08:54.321Z,21.60
2019-01-09T10:12:22.424Z,21.50
2019-01-09T10:15:19.544Z,21.50
2019-01-09T10:18:23.685Z,21.60
2019-01-09T10:21:52.227Z,21.50
2019-01-09T10:25:05.820Z,21.50
2019-01-09T10:28:12.227Z,21.60
2019-01-09T10:31:17.489Z,21.60
2019-01-09T10:38:26.765Z,21.60
2019-01-09T11:15:31.438Z,21.60
2019-01-09T11:18:29.703Z,21.60
2019-01-09T11:29:06.427Z,21.50
2019-01-09T11:35:54.850Z,21.50
2019-01-09T11:39:06.893Z,21.50
2019-01-09T11:42:01.989Z,21.50
2019-01-09T11:44:58.550Z,21.50
2019-01-09T11:47:57.530Z,21.50
2019-01-09T11:55:15.882Z,21.50
2019-01-09T11:58:26.115Z,21.50
2019-01-09T12:06:30.696Z,21.50
2019-01-09T12:08:44.034Z,21.50
2019-01-09T12:11:55.380Z,21.50
2019-01-09T12:17:56.276Z,21.50
2019-01-09T12:21:45.709Z,21.50
2019-01-09T12:25:46.090Z,21.50
2019-01-09T12:28:18.985Z,21.50
2019-01-09T12:31:14.874Z,21.50
2019-01-09T12:34:31.446Z,21.50
2019-01-09T12:37:22.740Z,21.50
2019-01-09T12:40:22.608Z,21.50
2019-01-09T12:43:23.391Z,21.50
2019-01-09T12:46:22.618Z,21.50
2019-01-09T12:49:20.216Z,21.50
2019-01-09T12:52:30.885Z,21.50
2019-01-09T12:55:35.980Z,21.50
2019-01-09T12:58:33.312Z,21.50
2019-01-09T13:01:29.527Z,21.50
2019-01-09T13:04:28.284Z,21.50
2019-01-09T13:07:34.937Z,21.50
2019-01-09T13:14:26.295Z,21.50
2019-01-09T13:17:22.894Z,21.50
2019-01-09T13:23:59.242Z,21.50
2019-01-09T23:04:56.643Z,20.20
